createdAt,value
2018-12-13T00:00:31.371Z,15.40
2018-12-13T00:01:03.680Z,15.40
2018-12-13T00:01:36.007Z,15.40
2018-12-13T00:02:08.315Z,15.40
2018-12-13T00:02:40.556Z,15.40
2018-12-13T00:03:12.972Z,15.40
2018-12-13T00:03:45.046Z,15.40
2018-12-13T00:04:17.338Z,15.40
2018-12-13T00:04:49.526Z,15.40
2018-12-13T00:05:21.953Z,15.40
2018-12-13T00:05:54.169Z,15.40
2018-12-13T00:06:26.300Z,15.40
2018-12-13T00:06:58.515Z,15.40
2018-12-13T00:07:30.676Z,15.40
2018-12-13T00:08:02.698Z,15.40
2018-12-13T00:08:34.835Z,15.40
2018-12-13T00:09:07.224Z,15.40
2018-12-13T00:09:39.395Z,15.40
2018-12-13T00:10:11.626Z,15.40
2018-12-13T00:10:43.586Z,15.40
2018-12-13T00:11:15.734Z,15.40
2018-12-13T00:11:47.895Z,15.40
2018-12-13T00:12:19.983Z,15.40
2018-12-13T00:12:52.305Z,15.30
2018-12-13T00:13:24.623Z,15.30
2018-12-13T00:13:56.666Z,15.30
2018-12-13T00:14:29.044Z,15.30
2018-12-13T00:15:01.299Z,15.30
2018-12-13T00:15:33.532Z,15.30
2018-12-13T00:16:06.066Z,15.30
2018-12-13T00:16:38.342Z,15.30
2018-12-13T00:17:10.602Z,15.30
2018-12-13T00:17:42.771Z,15.20
2018-12-13T00:18:15.132Z,15.30
2018-12-13T00:18:47.475Z,15.30
2018-12-13T00:19:19.829Z,15.30
2018-12-13T00:19:52.347Z,15.30
2018-12-13T00:20:24.589Z,15.30
2018-12-13T00:20:57.078Z,15.30
2018-12-13T00:21:29.508Z,15.30
2018-12-13T00:22:01.960Z,15.30
2018-12-13T00:22:34.390Z,15.30
2018-12-13T00:23:06.560Z,15.30
2018-12-13T00:23:38.995Z,15.30
2018-12-13T00:24:11.219Z,15.30
2018-12-13T00:24:43.882Z,15.30
2018-12-13T00:25:16.307Z,15.30
2018-12-13T00:25:48.830Z,15.20
2018-12-13T00:26:21.320Z,15.20
2018-12-13T00:26:53.680Z,15.20
2018-12-13T00:27:25.916Z,15.20
2018-12-13T00:27:58.018Z,15.20
2018-12-13T00:28:30.210Z,15.20
2018-12-13T00:29:02.599Z,15.10
2018-12-13T00:29:34.895Z,15.00
2018-12-13T00:30:07.096Z,15.00
2018-12-13T00:30:39.177Z,15.00
2018-12-13T00:31:11.521Z,15.00
2018-12-13T00:31:43.734Z,15.00
2018-12-13T00:32:15.958Z,15.00
2018-12-13T00:32:48.216Z,15.10
2018-12-13T00:33:20.356Z,15.00
2018-12-13T00:34:34.077Z,15.00
2018-12-13T00:35:06.579Z,15.00
2018-12-13T00:35:38.780Z,15.10
2018-12-13T00:36:10.918Z,15.10
2018-12-13T00:36:43.175Z,15.20
2018-12-13T00:37:15.389Z,15.20
2018-12-13T00:37:47.614Z,15.30
2018-12-13T00:38:19.730Z,15.30
2018-12-13T00:38:52.048Z,15.30
2018-12-13T00:39:24.440Z,15.40
2018-12-13T00:39:56.724Z,15.40
2018-12-13T00:40:28.981Z,15.50
2018-12-13T00:41:01.309Z,15.50
2018-12-13T00:41:33.945Z,15.50
2018-12-13T00:42:06.154Z,15.60
2018-12-13T00:42:38.550Z,15.60
2018-12-13T00:43:10.677Z,15.60
2018-12-13T00:43:43.101Z,15.60
2018-12-13T00:44:15.491Z,15.70
2018-12-13T00:44:47.744Z,15.60
2018-12-13T00:45:20.157Z,15.70
2018-12-13T00:45:52.402Z,15.70
2018-12-13T00:46:24.672Z,15.70
2018-12-13T00:46:57.201Z,15.80
2018-12-13T00:47:29.504Z,15.80
2018-12-13T00:48:01.729Z,15.80
2018-12-13T00:48:33.900Z,15.80
2018-12-13T00:49:06.132Z,15.80
2018-12-13T00:49:38.263Z,15.90
2018-12-13T00:50:10.347Z,15.80
2018-12-13T00:50:42.563Z,15.90
2018-12-13T00:51:15.054Z,15.80
2018-12-13T00:51:47.149Z,15.90
2018-12-13T00:52:19.454Z,15.90
2018-12-13T00:52:51.729Z,15.90
2018-12-13T00:53:24.456Z,15.90
2018-12-13T00:53:56.817Z,15.90
2018-12-13T00:54:29.249Z,15.90
2018-12-13T00:55:01.789Z,15.90
2018-12-13T00:55:34.018Z,15.90
2018-12-13T00:56:06.261Z,16.00
2018-12-13T00:56:38.470Z,16.00
2018-12-13T00:57:10.813Z,15.90
2018-12-13T00:57:43.195Z,16.00
2018-12-13T00:58:15.492Z,16.00
2018-12-13T00:58:47.914Z,16.00
2018-12-13T00:59:20.068Z,16.00
2018-12-13T00:59:52.323Z,16.00
2018-12-13T01:00:25.602Z,16.00
2018-12-13T01:00:57.739Z,16.10
2018-12-13T01:01:29.925Z,16.00
2018-12-13T01:02:02.196Z,16.00
2018-12-13T01:02:34.399Z,16.10
2018-12-13T01:03:06.718Z,16.10
2018-12-13T01:03:38.987Z,16.10
2018-12-13T01:04:11.219Z,16.10
2018-12-13T01:04:43.357Z,16.10
2018-12-13T01:05:15.726Z,16.10
2018-12-13T01:05:47.836Z,16.10
2018-12-13T01:06:20.057Z,16.10
2018-12-13T01:06:52.456Z,16.20
2018-12-13T01:07:24.638Z,16.20
2018-12-13T01:07:56.955Z,16.10
2018-12-13T01:08:29.125Z,16.10
2018-12-13T01:09:01.314Z,16.20
2018-12-13T01:09:33.574Z,16.20
2018-12-13T01:10:05.939Z,16.10
2018-12-13T01:10:38.218Z,16.20
2018-12-13T01:11:10.391Z,16.20
2018-12-13T01:11:42.622Z,16.20
2018-12-13T01:12:14.870Z,16.20
2018-12-13T01:12:47.173Z,16.20
2018-12-13T01:13:19.358Z,16.20
2018-12-13T01:13:51.641Z,16.20
2018-12-13T01:14:24.026Z,16.20
2018-12-13T01:14:56.195Z,16.20
2018-12-13T01:15:28.417Z,16.20
2018-12-13T01:16:00.655Z,16.20
2018-12-13T01:16:32.798Z,16.20
2018-12-13T01:17:05.310Z,16.20
2018-12-13T01:17:37.490Z,16.20
2018-12-13T01:18:09.701Z,16.20
2018-12-13T01:18:41.837Z,16.20
2018-12-13T01:19:13.991Z,16.20
2018-12-13T01:19:45.986Z,16.30
2018-12-13T01:20:18.137Z,16.30
2018-12-13T01:20:50.291Z,16.30
2018-12-13T01:21:22.773Z,16.30
2018-12-13T01:21:55.094Z,16.30
2018-12-13T01:22:27.558Z,16.30
2018-12-13T01:22:59.682Z,16.30
2018-12-13T01:23:31.872Z,16.30
2018-12-13T01:24:04.090Z,16.30
2018-12-13T01:24:36.531Z,16.30
2018-12-13T01:25:09.051Z,16.30
2018-12-13T01:25:41.245Z,16.30
2018-12-13T01:26:13.442Z,16.30
2018-12-13T01:26:46.649Z,16.30
2018-12-13T01:27:18.782Z,16.40
2018-12-13T01:27:51.257Z,16.30
2018-12-13T01:28:23.524Z,16.30
2018-12-13T01:28:55.714Z,16.40
2018-12-13T01:29:28.121Z,16.40
2018-12-13T01:30:00.415Z,16.40
2018-12-13T01:30:32.627Z,16.40
2018-12-13T01:31:04.829Z,16.30
2018-12-13T01:31:36.951Z,16.40
2018-12-13T01:32:09.252Z,16.30
2018-12-13T01:32:41.671Z,16.30
2018-12-13T01:33:13.759Z,16.40
2018-12-13T01:33:45.946Z,16.30
2018-12-13T01:34:18.090Z,16.40
2018-12-13T01:34:50.245Z,16.40
2018-12-13T01:35:22.461Z,16.40
2018-12-13T01:35:54.502Z,16.40
2018-12-13T01:36:26.808Z,16.30
2018-12-13T01:36:59.163Z,16.40
2018-12-13T01:37:31.618Z,16.40
2018-12-13T01:38:03.892Z,16.40
2018-12-13T01:38:36.227Z,16.40
2018-12-13T01:39:08.449Z,16.40
2018-12-13T01:39:40.609Z,16.40
2018-12-13T01:40:13.010Z,16.30
2018-12-13T01:40:45.373Z,16.40
2018-12-13T01:41:17.490Z,16.40
2018-12-13T01:41:49.891Z,16.40
2018-12-13T01:42:22.229Z,16.40
2018-12-13T01:42:54.513Z,16.40
2018-12-13T01:43:26.839Z,16.40
2018-12-13T01:43:59.102Z,16.40
2018-12-13T01:44:31.343Z,16.40
2018-12-13T01:45:03.611Z,16.40
2018-12-13T01:45:36.397Z,16.40
2018-12-13T01:46:08.663Z,16.40
2018-12-13T01:46:40.902Z,16.40
2018-12-13T01:47:13.107Z,16.40
2018-12-13T01:47:45.344Z,16.40
2018-12-13T01:48:17.743Z,16.40
2018-12-13T01:48:50.185Z,16.40
2018-12-13T01:49:22.450Z,16.40
2018-12-13T01:49:54.748Z,16.40
2018-12-13T01:50:27.186Z,16.40
2018-12-13T01:50:59.495Z,16.40
2018-12-13T01:51:31.549Z,16.40
2018-12-13T01:52:03.740Z,16.40
2018-12-13T01:52:36.405Z,16.40
2018-12-13T01:53:08.506Z,16.40
2018-12-13T01:53:40.883Z,16.40
2018-12-13T01:54:13.045Z,16.40
2018-12-13T01:54:45.357Z,16.40
2018-12-13T01:55:17.515Z,16.40
2018-12-13T01:55:49.938Z,16.40
2018-12-13T01:56:22.341Z,16.40
2018-12-13T01:56:54.772Z,16.40
2018-12-13T01:57:26.995Z,16.40
2018-12-13T01:57:59.111Z,16.40
2018-12-13T01:58:31.565Z,16.40
2018-12-13T01:59:03.743Z,16.40
2018-12-13T01:59:36.139Z,16.40
2018-12-13T02:00:08.197Z,16.40
2018-12-13T02:00:40.312Z,16.40
2018-12-13T02:01:12.532Z,16.40
2018-12-13T02:01:44.702Z,16.40
2018-12-13T02:02:17.162Z,16.40
2018-12-13T02:02:49.320Z,16.40
2018-12-13T02:03:21.492Z,16.40
2018-12-13T02:03:53.605Z,16.40
2018-12-13T02:04:25.767Z,16.40
2018-12-13T02:04:57.945Z,16.40
2018-12-13T02:05:30.144Z,16.40
2018-12-13T02:06:02.227Z,16.40
2018-12-13T02:06:34.332Z,16.40
2018-12-13T02:07:06.599Z,16.40
2018-12-13T02:07:38.822Z,16.40
2018-12-13T02:08:11.073Z,16.50
2018-12-13T02:08:43.082Z,16.50
2018-12-13T02:09:15.179Z,16.40
2018-12-13T02:09:47.431Z,16.40
2018-12-13T02:10:19.769Z,16.40
2018-12-13T02:10:51.618Z,16.50
2018-12-13T02:11:23.452Z,16.40
2018-12-13T02:11:55.807Z,16.50
2018-12-13T02:12:28.075Z,16.40
2018-12-13T02:13:00.189Z,16.50
2018-12-13T02:13:32.430Z,16.50
2018-12-13T02:14:04.576Z,16.50
2018-12-13T02:14:36.872Z,16.50
2018-12-13T02:15:09.069Z,16.50
2018-12-13T02:15:41.128Z,16.50
2018-12-13T02:16:13.372Z,16.50
2018-12-13T02:16:45.456Z,16.50
2018-12-13T02:17:17.957Z,16.50
2018-12-13T02:17:51.027Z,16.50
2018-12-13T02:18:23.286Z,16.50
2018-12-13T02:18:55.555Z,16.50
2018-12-13T02:19:27.836Z,16.50
2018-12-13T02:19:59.982Z,16.50
2018-12-13T02:20:32.101Z,16.50
2018-12-13T02:21:04.115Z,16.50
2018-12-13T02:21:36.107Z,16.50
2018-12-13T02:22:08.652Z,16.50
2018-12-13T02:22:40.754Z,16.50
2018-12-13T02:23:12.982Z,16.50
2018-12-13T02:23:45.070Z,16.50
2018-12-13T02:24:17.279Z,16.50
2018-12-13T02:24:49.533Z,16.50
2018-12-13T02:25:21.567Z,16.60
2018-12-13T02:25:53.665Z,16.60
2018-12-13T02:26:25.854Z,16.50
2018-12-13T02:26:58.221Z,16.50
2018-12-13T02:27:30.508Z,16.50
2018-12-13T02:28:02.881Z,16.60
2018-12-13T02:28:35.330Z,16.50
2018-12-13T02:29:07.414Z,16.50
2018-12-13T02:29:39.887Z,16.50
2018-12-13T02:30:12.129Z,16.50
2018-12-13T02:30:44.507Z,16.50
2018-12-13T02:31:16.796Z,16.50
2018-12-13T02:31:48.989Z,16.50
2018-12-13T02:32:21.227Z,16.60
2018-12-13T02:32:53.680Z,16.50
2018-12-13T02:33:26.027Z,16.50
2018-12-13T02:33:58.170Z,16.50
2018-12-13T02:34:30.422Z,16.50
2018-12-13T02:35:02.721Z,16.60
2018-12-13T02:35:35.039Z,16.50
2018-12-13T02:36:07.405Z,16.50
2018-12-13T02:36:39.839Z,16.50
2018-12-13T02:37:12.436Z,16.50
2018-12-13T02:37:44.822Z,16.50
2018-12-13T02:38:17.150Z,16.50
2018-12-13T02:38:49.244Z,16.60
2018-12-13T02:39:21.519Z,16.50
2018-12-13T02:39:54.226Z,16.50
2018-12-13T02:40:26.464Z,16.50
2018-12-13T02:40:58.530Z,16.50
2018-12-13T02:41:30.954Z,16.60
2018-12-13T02:42:03.239Z,16.60
2018-12-13T02:42:35.422Z,16.60
2018-12-13T02:43:07.795Z,16.50
2018-12-13T02:43:40.013Z,16.50
2018-12-13T02:44:12.312Z,16.50
2018-12-13T02:44:44.380Z,16.40
2018-12-13T02:45:16.517Z,16.40
2018-12-13T02:45:48.623Z,16.50
2018-12-13T02:46:20.747Z,16.50
2018-12-13T02:46:53.315Z,16.50
2018-12-13T02:47:25.512Z,16.50
2018-12-13T02:47:57.868Z,16.50
2018-12-13T02:48:29.981Z,16.50
2018-12-13T02:49:02.074Z,16.60
2018-12-13T02:49:34.312Z,16.50
2018-12-13T02:50:06.515Z,16.50
2018-12-13T02:50:38.900Z,16.50
2018-12-13T02:51:10.950Z,16.60
2018-12-13T02:51:43.220Z,16.50
2018-12-13T02:52:15.440Z,16.60
2018-12-13T02:52:47.810Z,16.60
2018-12-13T02:53:20.089Z,16.60
2018-12-13T02:53:52.262Z,16.60
2018-12-13T02:54:24.787Z,16.60
2018-12-13T02:54:57.005Z,16.60
2018-12-13T02:55:29.473Z,16.60
2018-12-13T02:56:02.108Z,16.60
2018-12-13T02:56:34.360Z,16.60
2018-12-13T02:57:06.544Z,16.60
2018-12-13T02:57:38.754Z,16.60
2018-12-13T02:58:10.974Z,16.60
2018-12-13T02:58:43.219Z,16.60
2018-12-13T02:59:15.408Z,16.60
2018-12-13T02:59:47.549Z,16.50
2018-12-13T03:00:19.749Z,16.60
2018-12-13T03:00:51.854Z,16.50
2018-12-13T03:01:24.103Z,16.60
2018-12-13T03:01:56.277Z,16.60
2018-12-13T03:02:28.438Z,16.60
2018-12-13T03:03:00.991Z,16.60
2018-12-13T03:03:33.157Z,16.60
2018-12-13T03:04:05.226Z,16.60
2018-12-13T03:04:37.527Z,16.60
2018-12-13T03:05:09.797Z,16.60
2018-12-13T03:05:42.238Z,16.60
2018-12-13T03:06:14.380Z,16.50
2018-12-13T03:06:46.757Z,16.60
2018-12-13T03:07:19.027Z,16.60
2018-12-13T03:07:51.260Z,16.60
2018-12-13T03:08:23.511Z,16.60
2018-12-13T03:08:55.570Z,16.60
2018-12-13T03:09:27.816Z,16.60
2018-12-13T03:10:00.147Z,16.60
2018-12-13T03:10:32.465Z,16.60
2018-12-13T03:11:04.988Z,16.60
2018-12-13T03:11:37.146Z,16.60
2018-12-13T03:12:09.288Z,16.50
2018-12-13T03:12:41.979Z,16.60
2018-12-13T03:13:14.057Z,16.60
2018-12-13T03:13:46.380Z,16.60
2018-12-13T03:14:18.607Z,16.50
2018-12-13T03:14:50.896Z,16.60
2018-12-13T03:15:23.249Z,16.60
2018-12-13T03:15:55.617Z,16.60
2018-12-13T03:16:27.765Z,16.60
2018-12-13T03:16:59.973Z,16.60
2018-12-13T03:17:32.291Z,16.60
2018-12-13T03:18:04.405Z,16.60
2018-12-13T03:18:36.537Z,16.60
2018-12-13T03:19:08.687Z,16.60
2018-12-13T03:19:41.001Z,16.60
2018-12-13T03:20:13.394Z,16.60
2018-12-13T03:20:45.826Z,16.60
2018-12-13T03:21:18.090Z,16.60
2018-12-13T03:21:50.359Z,16.60
2018-12-13T03:22:22.778Z,16.60
2018-12-13T03:22:55.055Z,16.60
2018-12-13T03:23:27.522Z,16.60
2018-12-13T03:24:00.076Z,16.60
2018-12-13T03:24:32.518Z,16.60
2018-12-13T03:25:04.771Z,16.60
2018-12-13T03:25:37.155Z,16.60
2018-12-13T03:26:09.530Z,16.60
2018-12-13T03:26:41.710Z,16.70
2018-12-13T03:27:13.971Z,16.60
2018-12-13T03:27:46.387Z,16.60
2018-12-13T03:28:18.615Z,16.60
2018-12-13T03:28:50.968Z,16.60
2018-12-13T03:29:23.115Z,16.60
2018-12-13T03:29:55.698Z,16.60
2018-12-13T03:30:27.972Z,16.60
2018-12-13T03:31:00.041Z,16.60
2018-12-13T03:31:32.268Z,16.60
2018-12-13T03:32:04.420Z,16.60
2018-12-13T03:32:36.718Z,16.60
2018-12-13T03:33:08.819Z,16.50
2018-12-13T03:33:41.199Z,16.50
2018-12-13T03:34:13.598Z,16.50
2018-12-13T03:34:45.754Z,16.40
2018-12-13T03:35:18.061Z,16.40
2018-12-13T03:35:50.375Z,16.40
2018-12-13T03:36:22.741Z,16.40
2018-12-13T03:36:54.911Z,16.40
2018-12-13T03:37:27.137Z,16.40
2018-12-13T03:37:59.298Z,16.30
2018-12-13T03:38:31.574Z,16.30
2018-12-13T03:39:03.876Z,16.30
2018-12-13T03:39:35.972Z,16.30
2018-12-13T03:40:08.006Z,16.30
2018-12-13T03:40:40.528Z,16.20
2018-12-13T03:41:12.855Z,16.20
2018-12-13T03:41:45.097Z,16.20
2018-12-13T03:42:17.301Z,16.20
2018-12-13T03:42:49.428Z,16.20
2018-12-13T03:43:21.615Z,16.30
2018-12-13T03:43:53.934Z,16.20
2018-12-13T03:44:26.130Z,16.20
2018-12-13T03:44:58.626Z,16.20
2018-12-13T03:45:30.946Z,16.20
2018-12-13T03:46:03.213Z,16.20
2018-12-13T03:46:35.338Z,16.20
2018-12-13T03:47:07.564Z,16.20
2018-12-13T03:47:39.881Z,16.20
2018-12-13T03:48:12.060Z,16.20
2018-12-13T03:48:44.300Z,16.20
2018-12-13T03:49:16.870Z,16.20
2018-12-13T03:49:48.997Z,16.20
2018-12-13T03:50:21.108Z,16.20
2018-12-13T03:50:53.517Z,16.20
2018-12-13T03:51:25.658Z,16.20
2018-12-13T03:51:58.075Z,16.20
2018-12-13T03:52:30.309Z,16.20
2018-12-13T03:53:02.885Z,16.20
2018-12-13T03:53:35.297Z,16.20
2018-12-13T03:54:07.749Z,16.20
2018-12-13T03:54:40.027Z,16.20
2018-12-13T03:55:12.305Z,16.20
2018-12-13T03:55:44.584Z,16.20
2018-12-13T03:56:16.648Z,16.20
2018-12-13T03:56:49.138Z,16.20
2018-12-13T03:57:21.395Z,16.20
2018-12-13T03:57:53.555Z,16.20
2018-12-13T03:58:25.773Z,16.10
2018-12-13T03:58:58.162Z,15.80
2018-12-13T03:59:30.417Z,16.10
2018-12-13T04:00:03.402Z,16.10
2018-12-13T04:00:35.584Z,16.10
2018-12-13T04:01:50.764Z,16.10
2018-12-13T04:02:23.300Z,16.10
2018-12-13T04:02:55.690Z,16.10
2018-12-13T04:03:27.835Z,16.20
2018-12-13T04:04:00.024Z,16.20
2018-12-13T04:04:32.310Z,16.10
2018-12-13T04:05:04.568Z,16.10
2018-12-13T04:05:36.762Z,16.10
2018-12-13T04:06:08.995Z,16.10
2018-12-13T04:06:41.446Z,16.10
2018-12-13T04:07:13.630Z,16.10
2018-12-13T04:07:46.266Z,16.20
2018-12-13T04:08:18.608Z,16.10
2018-12-13T04:08:50.935Z,16.10
2018-12-13T04:09:23.228Z,16.10
2018-12-13T04:09:55.438Z,16.10
2018-12-13T04:10:27.966Z,16.10
2018-12-13T04:11:00.468Z,16.10
2018-12-13T04:11:33.172Z,16.10
2018-12-13T04:12:05.717Z,16.10
2018-12-13T04:12:38.486Z,16.10
2018-12-13T04:13:11.239Z,16.10
2018-12-13T04:13:43.586Z,16.00
2018-12-13T04:14:15.768Z,16.00
2018-12-13T04:14:48.144Z,16.10
2018-12-13T04:15:20.339Z,16.10
2018-12-13T04:15:53.013Z,16.10
2018-12-13T04:16:25.602Z,16.10
2018-12-13T04:16:58.101Z,16.10
2018-12-13T04:17:30.808Z,16.10
2018-12-13T04:18:03.367Z,16.10
2018-12-13T04:18:35.604Z,16.10
2018-12-13T04:19:08.036Z,16.10
2018-12-13T04:19:40.915Z,16.00
2018-12-13T04:20:13.373Z,16.10
2018-12-13T04:20:45.987Z,16.10
2018-12-13T04:21:18.674Z,16.10
2018-12-13T04:21:51.193Z,16.00
2018-12-13T04:22:23.641Z,16.00
2018-12-13T04:22:56.222Z,16.00
2018-12-13T04:23:28.921Z,16.10
2018-12-13T04:24:01.557Z,16.10
2018-12-13T04:24:34.097Z,16.10
2018-12-13T04:25:06.642Z,16.10
2018-12-13T04:25:39.101Z,16.00
2018-12-13T04:26:11.693Z,16.00
2018-12-13T04:26:43.811Z,16.00
2018-12-13T04:27:16.611Z,16.00
2018-12-13T04:27:49.511Z,16.00
2018-12-13T04:28:22.011Z,16.00
2018-12-13T04:28:54.663Z,16.00
2018-12-13T04:29:26.844Z,16.00
2018-12-13T04:29:59.248Z,16.00
2018-12-13T04:30:31.732Z,15.90
2018-12-13T04:31:04.332Z,15.90
2018-12-13T04:31:36.830Z,15.90
2018-12-13T04:32:09.370Z,15.90
2018-12-13T04:32:41.710Z,15.90
2018-12-13T04:33:13.955Z,15.90
2018-12-13T04:33:46.690Z,16.00
2018-12-13T04:34:19.220Z,15.90
2018-12-13T04:34:51.592Z,15.90
2018-12-13T04:35:23.808Z,15.90
2018-12-13T04:35:56.382Z,15.90
2018-12-13T04:36:28.889Z,15.90
2018-12-13T04:37:01.291Z,15.90
2018-12-13T04:37:35.387Z,15.90
2018-12-13T04:38:07.765Z,15.90
2018-12-13T04:38:40.099Z,15.90
2018-12-13T04:39:12.471Z,15.90
2018-12-13T04:39:44.539Z,15.90
2018-12-13T04:40:16.680Z,15.90
2018-12-13T04:40:48.838Z,15.90
2018-12-13T04:41:21.263Z,15.90
2018-12-13T04:41:53.439Z,15.90
2018-12-13T04:42:26.050Z,16.00
2018-12-13T04:42:58.245Z,16.00
2018-12-13T04:43:30.569Z,16.00
2018-12-13T04:44:02.841Z,16.00
2018-12-13T04:44:34.812Z,16.00
2018-12-13T04:45:07.017Z,16.00
2018-12-13T04:45:39.440Z,16.00
2018-12-13T04:46:11.649Z,16.00
2018-12-13T04:46:43.880Z,16.00
2018-12-13T04:47:15.993Z,16.00
2018-12-13T04:47:48.182Z,16.00
2018-12-13T04:48:20.488Z,16.00
2018-12-13T04:48:52.690Z,16.00
2018-12-13T04:49:24.999Z,16.10
2018-12-13T04:49:57.218Z,16.00
2018-12-13T04:50:29.720Z,16.00
2018-12-13T04:51:02.089Z,16.00
2018-12-13T04:51:34.207Z,16.00
2018-12-13T04:52:06.626Z,16.00
2018-12-13T04:52:38.879Z,16.00
2018-12-13T04:53:11.262Z,16.00
2018-12-13T04:53:43.883Z,16.00
2018-12-13T04:54:16.279Z,16.00
2018-12-13T04:54:48.499Z,16.00
2018-12-13T04:55:20.833Z,16.10
2018-12-13T04:55:53.048Z,16.10
2018-12-13T04:56:25.187Z,16.10
2018-12-13T04:56:57.369Z,16.00
2018-12-13T04:57:29.809Z,16.10
2018-12-13T04:58:02.004Z,16.10
2018-12-13T04:58:34.322Z,16.00
2018-12-13T04:59:06.881Z,16.10
2018-12-13T04:59:39.049Z,16.10
2018-12-13T05:00:11.442Z,16.10
2018-12-13T05:00:43.881Z,16.10
2018-12-13T05:01:16.296Z,16.10
2018-12-13T05:01:48.677Z,16.10
2018-12-13T05:02:21.065Z,16.00
2018-12-13T05:02:53.272Z,16.00
2018-12-13T05:03:25.545Z,16.00
2018-12-13T05:03:57.986Z,16.00
2018-12-13T05:04:30.167Z,16.10
2018-12-13T05:05:02.596Z,16.00
2018-12-13T05:05:34.818Z,16.00
2018-12-13T05:06:07.078Z,16.00
2018-12-13T05:06:39.363Z,16.10
2018-12-13T05:07:11.787Z,16.10
2018-12-13T05:07:43.906Z,16.10
2018-12-13T05:08:16.116Z,16.10
2018-12-13T05:08:48.427Z,16.10
2018-12-13T05:09:20.617Z,16.10
2018-12-13T05:09:52.822Z,16.00
2018-12-13T05:10:24.926Z,16.00
2018-12-13T05:10:57.335Z,16.10
2018-12-13T05:11:29.528Z,16.10
2018-12-13T05:12:01.972Z,16.10
2018-12-13T05:12:34.337Z,16.10
2018-12-13T05:13:06.730Z,16.10
2018-12-13T05:13:38.955Z,16.10
2018-12-13T05:14:11.197Z,16.10
2018-12-13T05:14:43.330Z,16.00
2018-12-13T05:15:15.546Z,16.00
2018-12-13T05:15:47.878Z,16.00
2018-12-13T05:16:20.645Z,16.10
2018-12-13T05:16:52.820Z,16.00
2018-12-13T05:17:25.085Z,16.00
2018-12-13T05:17:57.291Z,16.00
2018-12-13T05:18:29.527Z,16.00
2018-12-13T05:19:01.633Z,16.10
2018-12-13T05:19:33.981Z,16.00
2018-12-13T05:20:06.121Z,16.00
2018-12-13T05:20:38.396Z,16.10
2018-12-13T05:21:10.481Z,16.10
2018-12-13T05:21:42.609Z,16.00
2018-12-13T05:22:14.794Z,16.10
2018-12-13T05:22:46.855Z,16.10
2018-12-13T05:23:19.363Z,16.10
2018-12-13T05:23:51.618Z,16.00
2018-12-13T05:24:24.076Z,16.10
2018-12-13T05:24:56.200Z,16.10
2018-12-13T05:25:28.365Z,16.10
2018-12-13T05:26:00.638Z,16.00
2018-12-13T05:26:32.895Z,16.10
2018-12-13T05:27:05.077Z,16.10
2018-12-13T05:27:37.200Z,16.00
2018-12-13T05:28:09.461Z,16.10
2018-12-13T05:28:41.538Z,16.10
2018-12-13T05:29:13.855Z,16.00
2018-12-13T05:29:46.256Z,16.00
2018-12-13T05:30:18.513Z,16.00
2018-12-13T05:30:50.785Z,16.00
2018-12-13T05:31:22.937Z,16.00
2018-12-13T05:31:55.525Z,16.00
2018-12-13T05:32:27.796Z,16.00
2018-12-13T05:33:00.011Z,16.00
2018-12-13T05:33:32.298Z,16.00
2018-12-13T05:34:04.571Z,16.00
2018-12-13T05:34:36.734Z,16.00
2018-12-13T05:35:09.314Z,16.00
2018-12-13T05:35:41.640Z,16.00
2018-12-13T05:36:13.678Z,16.00
2018-12-13T05:36:45.866Z,16.00
2018-12-13T05:37:18.023Z,16.00
2018-12-13T05:37:50.386Z,16.10
2018-12-13T05:38:22.555Z,16.10
2018-12-13T05:38:54.680Z,16.10
2018-12-13T05:39:26.983Z,16.10
2018-12-13T05:39:59.131Z,16.10
2018-12-13T05:40:31.318Z,16.00
2018-12-13T05:41:03.569Z,16.10
2018-12-13T05:41:35.686Z,16.10
2018-12-13T05:42:07.949Z,16.10
2018-12-13T05:42:40.161Z,16.10
2018-12-13T05:43:12.268Z,16.10
2018-12-13T05:43:44.463Z,16.00
2018-12-13T05:44:16.548Z,16.00
2018-12-13T05:44:48.899Z,16.00
2018-12-13T05:45:21.096Z,16.00
2018-12-13T05:45:53.236Z,16.00
2018-12-13T05:46:25.681Z,16.00
2018-12-13T05:46:57.864Z,16.00
2018-12-13T05:47:30.065Z,16.00
2018-12-13T05:48:02.455Z,16.00
2018-12-13T05:48:34.566Z,16.00
2018-12-13T05:49:06.769Z,16.00
2018-12-13T05:49:38.998Z,15.80
2018-12-13T05:50:11.147Z,16.00
2018-12-13T05:50:43.442Z,16.00
2018-12-13T05:51:15.775Z,16.00
2018-12-13T05:51:47.971Z,16.00
2018-12-13T05:52:20.298Z,16.00
2018-12-13T05:52:52.535Z,16.00
2018-12-13T05:53:25.554Z,16.00
2018-12-13T05:53:57.883Z,16.00
2018-12-13T05:54:30.026Z,16.00
2018-12-13T05:55:02.176Z,16.00
2018-12-13T05:55:34.496Z,16.00
2018-12-13T05:56:06.779Z,16.00
2018-12-13T05:56:38.883Z,16.00
2018-12-13T05:57:11.116Z,16.00
2018-12-13T05:57:43.338Z,16.00
2018-12-13T05:58:15.455Z,16.00
2018-12-13T05:58:47.591Z,16.00
2018-12-13T05:59:19.845Z,16.00
2018-12-13T05:59:52.159Z,16.00
2018-12-13T06:00:24.460Z,16.00
2018-12-13T06:00:56.943Z,16.00
2018-12-13T06:01:29.254Z,16.00
2018-12-13T06:02:01.575Z,16.00
2018-12-13T06:02:33.706Z,16.00
2018-12-13T06:03:05.901Z,16.00
2018-12-13T06:03:38.110Z,16.00
2018-12-13T06:04:10.326Z,16.00
2018-12-13T06:04:42.437Z,16.00
2018-12-13T06:05:14.599Z,16.00
2018-12-13T06:05:46.867Z,16.00
2018-12-13T06:06:19.116Z,16.00
2018-12-13T06:06:51.467Z,16.00
2018-12-13T06:07:23.615Z,16.00
2018-12-13T06:07:55.637Z,16.00
2018-12-13T06:08:28.697Z,16.00
2018-12-13T06:09:01.697Z,16.00
2018-12-13T06:09:34.121Z,15.90
2018-12-13T06:10:06.282Z,15.90
2018-12-13T06:10:38.487Z,15.90
2018-12-13T06:11:10.859Z,15.90
2018-12-13T06:11:43.240Z,15.90
2018-12-13T06:12:15.318Z,16.00
2018-12-13T06:12:47.850Z,16.00
2018-12-13T06:13:19.898Z,16.00
2018-12-13T06:13:52.130Z,16.00
2018-12-13T06:14:24.367Z,16.00
2018-12-13T06:14:56.968Z,16.00
2018-12-13T06:15:29.147Z,16.00
2018-12-13T06:16:01.727Z,16.00
2018-12-13T06:16:34.071Z,16.00
2018-12-13T06:17:06.259Z,16.00
2018-12-13T06:17:38.459Z,16.00
2018-12-13T06:18:10.790Z,16.00
2018-12-13T06:18:43.377Z,16.00
2018-12-13T06:19:15.684Z,16.00
2018-12-13T06:19:47.770Z,16.00
2018-12-13T06:20:20.071Z,16.00
2018-12-13T06:20:52.318Z,16.00
2018-12-13T06:21:24.451Z,16.00
2018-12-13T06:21:56.546Z,15.90
2018-12-13T06:22:28.707Z,16.00
2018-12-13T06:23:01.246Z,16.00
2018-12-13T06:23:33.747Z,16.00
2018-12-13T06:24:06.005Z,16.00
2018-12-13T06:24:38.183Z,16.00
2018-12-13T06:25:10.152Z,16.00
2018-12-13T06:25:42.266Z,16.00
2018-12-13T06:26:14.303Z,16.00
2018-12-13T06:26:46.807Z,16.00
2018-12-13T06:27:18.976Z,16.00
2018-12-13T06:27:51.280Z,16.10
2018-12-13T06:28:23.690Z,16.10
2018-12-13T06:28:55.863Z,16.10
2018-12-13T06:29:28.059Z,16.00
2018-12-13T06:30:00.401Z,16.00
2018-12-13T06:30:32.701Z,16.00
2018-12-13T06:31:05.137Z,15.90
2018-12-13T06:31:37.317Z,15.90
2018-12-13T06:32:10.384Z,15.90
2018-12-13T06:32:42.507Z,15.90
2018-12-13T06:33:14.674Z,15.90
2018-12-13T06:33:47.166Z,15.90
2018-12-13T06:34:19.398Z,16.00
2018-12-13T06:34:51.489Z,16.00
2018-12-13T06:35:23.557Z,16.00
2018-12-13T06:35:55.752Z,16.00
2018-12-13T06:36:27.984Z,16.00
2018-12-13T06:37:00.360Z,16.00
2018-12-13T06:37:32.519Z,15.90
2018-12-13T06:38:04.726Z,16.00
2018-12-13T06:38:36.982Z,16.00
2018-12-13T06:39:09.127Z,16.00
2018-12-13T06:39:41.271Z,16.00
2018-12-13T06:40:15.639Z,15.90
2018-12-13T06:40:47.949Z,16.00
2018-12-13T06:41:20.028Z,16.00
2018-12-13T06:41:52.381Z,16.00
2018-12-13T06:42:24.506Z,16.00
2018-12-13T06:42:56.899Z,16.00
2018-12-13T06:43:29.235Z,16.00
2018-12-13T06:44:01.599Z,16.00
2018-12-13T06:44:34.058Z,16.00
2018-12-13T06:45:06.290Z,16.00
2018-12-13T06:45:38.666Z,16.00
2018-12-13T06:46:10.838Z,16.00
2018-12-13T06:46:43.072Z,16.00
2018-12-13T06:47:16.348Z,16.00
2018-12-13T06:47:48.597Z,16.00
2018-12-13T06:48:20.719Z,16.00
2018-12-13T06:48:53.030Z,16.00
2018-12-13T06:49:25.201Z,16.00
2018-12-13T06:49:57.322Z,16.00
2018-12-13T06:50:29.471Z,16.00
2018-12-13T06:51:02.128Z,16.00
2018-12-13T06:51:34.991Z,16.00
2018-12-13T06:52:07.223Z,16.00
2018-12-13T06:52:39.358Z,15.90
2018-12-13T06:53:11.377Z,16.00
2018-12-13T06:53:43.535Z,16.00
2018-12-13T06:54:15.895Z,16.00
2018-12-13T06:54:48.190Z,16.00
2018-12-13T06:55:20.686Z,15.90
2018-12-13T06:55:53.285Z,15.90
2018-12-13T06:56:25.546Z,15.90
2018-12-13T06:56:57.774Z,15.90
2018-12-13T06:57:30.085Z,15.90